Time;durP1;ratioP1;P1;durP2;ratioP2;P2;SDS_P1;SDS_P2;PMS_P1;PMS_P2;Temp;Humidity;BMP_temperature;BMP_pressure;BME280_temperature;BME280_humidity;BME280_pressure;Samples;Min_cycle;Max_cycle;Signal;HPM_P1;HPM_P2
2023/05/27 00:00:32;;;;;;;2.38;1.15;;;;;;;;;;5021384;28;20045;-63
2023/05/27 00:03:00;;;;;;;1.52;0.82;;;;;;;;;;5019515;28;20061;-63
2023/05/27 00:05:26;;;;;;;2.45;1.00;;;;;;;;;;5020999;28;20053;-63
2023/05/27 00:07:52;;;;;;;1.08;0.85;;;;;;;;;;5022049;28;20049;-63
2023/05/27 00:10:18;;;;;;;2.83;1.10;;;;;;;;;;5021620;28;20052;-63
2023/05/27 00:12:44;;;;;;;2.25;1.10;;;;;;;;;;5021520;28;20046;-63
2023/05/27 00:15:11;;;;;;;1.67;0.88;;;;;;;;;;5005396;28;20065;-63
2023/05/27 00:17:39;;;;;;;1.95;1.00;;;;;;;;;;5020547;28;20053;-63
2023/05/27 00:20:07;;;;;;;2.72;1.00;;;;;;;;;;5022621;28;21176;-63
2023/05/27 00:22:34;;;;;;;1.98;0.98;;;;;;;;;;5021561;28;20128;-63
2023/05/27 00:25:00;;;;;;;1.45;0.80;;;;;;;;;;5018709;28;20056;-63
2023/05/27 00:27:26;;;;;;;1.88;0.93;;;;;;;;;;5021702;28;20041;-63
2023/05/27 00:29:52;;;;;;;1.85;0.77;;;;;;;;;;5022210;28;20760;-63
2023/05/27 00:32:18;;;;;;;3.05;1.27;;;;;;;;;;5018319;28;20038;-63
2023/05/27 00:34:45;;;;;;;2.78;1.30;;;;;;;;;;5019977;28;20231;-63
2023/05/27 00:37:11;;;;;;;1.38;0.82;;;;;;;;;;5022075;28;20112;-63
2023/05/27 00:39:37;;;;;;;5.25;1.55;;;;;;;;;;5021360;28;20506;-63
2023/05/27 00:42:03;;;;;;;1.73;1.00;;;;;;;;;;5023002;28;20076;-63
2023/05/27 00:44:29;;;;;;;2.05;1.48;;;;;;;;;;5023819;28;20073;-63
2023/05/27 00:46:55;;;;;;;3.03;0.80;;;;;;;;;;5026055;28;20489;-63
2023/05/27 00:49:21;;;;;;;3.35;1.30;;;;;;;;;;5026345;28;20037;-63
2023/05/27 00:51:47;;;;;;;2.85;1.20;;;;;;;;;;5024229;28;20033;-63
2023/05/27 00:54:13;;;;;;;1.52;0.98;;;;;;;;;;5025576;28;20072;-63
2023/05/27 00:56:39;;;;;;;1.65;0.73;;;;;;;;;;5023350;28;20495;-63
2023/05/27 00:59:06;;;;;;;2.10;1.00;;;;;;;;;;5024788;28;21069;-63
2023/05/27 01:01:33;;;;;;;2.90;1.20;;;;;;;;;;5024677;28;20090;-63
2023/05/27 01:04:00;;;;;;;1.42;0.70;;;;;;;;;;5021782;28;20053;-63
2023/05/27 01:06:28;;;;;;;1.50;0.85;;;;;;;;;;5018654;28;20068;-63
2023/05/27 01:09:04;;;;;;;1.88;0.90;;;;;;;;;;5025162;28;20049;-63
2023/05/27 01:11:33;;;;;;;2.88;1.27;;;;;;;;;;5007567;28;20698;-63
2023/05/27 01:14:05;;;;;;;2.25;0.98;;;;;;;;;;5023770;28;20778;-63
2023/05/27 01:16:31;;;;;;;3.08;1.08;;;;;;;;;;5021725;28;20049;-62
2023/05/27 01:18:59;;;;;;;2.42;1.25;;;;;;;;;;5025429;28;20128;-63
2023/05/27 01:21:28;;;;;;;2.33;0.80;;;;;;;;;;5024392;28;20053;-63
2023/05/27 01:23:54;;;;;;;2.80;0.90;;;;;;;;;;5024680;28;20056;-63
2023/05/27 01:26:20;;;;;;;1.83;1.20;;;;;;;;;;5025262;28;20049;-63
2023/05/27 01:28:46;;;;;;;1.55;1.20;;;;;;;;;;5024730;28;20060;-63
2023/05/27 01:31:14;;;;;;;1.20;0.93;;;;;;;;;;5025667;28;20482;-62
2023/05/27 01:33:41;;;;;;;1.50;0.88;;;;;;;;;;5024277;28;20037;-62
2023/05/27 01:36:18;;;;;;;0.70;0.70;;;;;;;;;;5025555;28;20042;-62
2023/05/27 01:38:46;;;;;;;1.92;0.82;;;;;;;;;;5024896;28;20083;-63
2023/05/27 01:41:12;;;;;;;1.50;1.10;;;;;;;;;;5025565;28;20034;-63
2023/05/27 01:43:39;;;;;;;1.80;0.75;;;;;;;;;;5023858;28;20116;-63
2023/05/27 01:46:05;;;;;;;2.25;1.27;;;;;;;;;;5022670;28;20512;-63
2023/05/27 01:48:31;;;;;;;1.42;0.90;;;;;;;;;;5022643;28;20616;-63
2023/05/27 01:50:57;;;;;;;2.80;1.10;;;;;;;;;;5024813;28;20045;-63
2023/05/27 01:53:23;;;;;;;2.03;1.00;;;;;;;;;;5024456;28;20049;-63
2023/05/27 01:55:49;;;;;;;2.08;0.88;;;;;;;;;;5023096;28;20045;-63
2023/05/27 01:58:15;;;;;;;4.90;1.20;;;;;;;;;;5025766;28;20068;-63
2023/05/27 02:00:41;;;;;;;2.35;1.27;;;;;;;;;;5024094;28;20049;-63
2023/05/27 02:03:07;;;;;;;2.90;1.30;;;;;;;;;;5023271;28;20057;-63
2023/05/27 02:05:35;;;;;;;4.78;1.27;;;;;;;;;;5023807;28;20544;-63
2023/05/27 02:08:01;;;;;;;2.80;0.85;;;;;;;;;;5022305;28;20768;-62
2023/05/27 02:10:27;;;;;;;0.95;0.60;;;;;;;;;;5023444;28;20056;-62
2023/05/27 02:12:53;;;;;;;3.78;1.33;;;;;;;;;;5023264;28;20038;-63
2023/05/27 02:15:23;;;;;;;2.70;1.00;;;;;;;;;;5024470;28;20059;-63
2023/05/27 02:17:54;;;;;;;2.50;0.88;;;;;;;;;;5023160;28;20060;-62
2023/05/27 02:20:21;;;;;;;1.90;0.70;;;;;;;;;;5024724;28;20041;-62
2023/05/27 02:22:47;;;;;;;1.77;0.88;;;;;;;;;;5020235;28;20048;-62
2023/05/27 02:25:13;;;;;;;2.15;1.10;;;;;;;;;;5025021;28;20049;-63
2023/05/27 02:27:39;;;;;;;1.17;0.82;;;;;;;;;;5023024;28;20510;-63
2023/05/27 02:30:05;;;;;;;0.75;0.70;;;;;;;;;;5023976;28;20042;-62
2023/05/27 02:32:31;;;;;;;1.10;0.85;;;;;;;;;;5023681;28;20041;-62
2023/05/27 02:34:57;;;;;;;1.70;0.70;;;;;;;;;;5023055;28;20051;-63
2023/05/27 02:37:24;;;;;;;0.95;0.60;;;;;;;;;;5022021;28;20414;-62
2023/05/27 02:39:55;;;;;;;1.55;0.63;;;;;;;;;;5023525;28;20107;-62
2023/05/27 02:42:21;;;;;;;2.22;0.95;;;;;;;;;;5024111;28;20034;-62
2023/05/27 02:44:47;;;;;;;1.52;1.27;;;;;;;;;;5022451;28;20056;-63
2023/05/27 02:47:13;;;;;;;1.42;0.80;;;;;;;;;;5024929;28;20498;-62
2023/05/27 02:49:39;;;;;;;2.55;1.08;;;;;;;;;;5022476;28;20047;-62
2023/05/27 02:52:05;;;;;;;2.47;1.10;;;;;;;;;;5021982;28;20029;-62
2023/05/27 02:54:31;;;;;;;1.58;0.80;;;;;;;;;;5023346;28;20041;-62
2023/05/27 02:56:57;;;;;;;0.57;0.57;;;;;;;;;;5023099;28;20390;-62
2023/05/27 02:59:23;;;;;;;1.50;0.95;;;;;;;;;;5020705;28;20045;-62
2023/05/27 03:01:49;;;;;;;1.92;1.05;;;;;;;;;;5021513;28;20056;-63
2023/05/27 03:04:16;;;;;;;1.55;0.73;;;;;;;;;;5024246;28;20045;-63
2023/05/27 03:06:42;;;;;;;2.38;1.08;;;;;;;;;;5020855;28;20057;-63
2023/05/27 03:09:08;;;;;;;1.73;0.85;;;;;;;;;;5022576;28;20104;-62
2023/05/27 03:11:34;;;;;;;1.17;0.73;;;;;;;;;;5022283;28;20767;-62
2023/05/27 03:14:00;;;;;;;1.73;0.90;;;;;;;;;;5022341;28;20041;-62
2023/05/27 03:16:26;;;;;;;1.90;1.00;;;;;;;;;;5022522;28;20112;-62
2023/05/27 03:18:52;;;;;;;1.50;0.77;;;;;;;;;;5022420;28;20378;-62
2023/05/27 03:21:18;;;;;;;1.70;0.80;;;;;;;;;;5023799;28;20042;-62
2023/05/27 03:23:44;;;;;;;1.45;0.73;;;;;;;;;;5021725;28;20046;-62
2023/05/27 03:26:10;;;;;;;1.70;0.85;;;;;;;;;;5001611;28;20045;-62
2023/05/27 03:28:36;;;;;;;1.70;1.00;;;;;;;;;;5022270;28;20132;-62
2023/05/27 03:31:03;;;;;;;1.38;0.85;;;;;;;;;;5022370;28;20041;-62
2023/05/27 03:33:29;;;;;;;2.75;0.85;;;;;;;;;;5020888;28;20072;-62
2023/05/27 03:35:55;;;;;;;1.02;0.80;;;;;;;;;;5019514;28;20041;-62
2023/05/27 03:38:21;;;;;;;1.45;0.63;;;;;;;;;;5022264;28;20658;-62
2023/05/27 03:40:47;;;;;;;1.92;0.70;;;;;;;;;;5020123;28;20554;-62
2023/05/27 03:43:13;;;;;;;1.92;0.88;;;;;;;;;;5022512;28;20042;-62
2023/05/27 03:45:39;;;;;;;1.67;0.80;;;;;;;;;;5019434;28;20049;-62
2023/05/27 03:48:05;;;;;;;1.75;0.73;;;;;;;;;;5015281;28;21149;-62
2023/05/27 03:50:32;;;;;;;2.15;0.98;;;;;;;;;;5004885;28;20622;-62
2023/05/27 03:52:58;;;;;;;1.98;0.98;;;;;;;;;;5023119;28;20038;-62
2023/05/27 03:55:24;;;;;;;1.83;0.90;;;;;;;;;;5021517;28;20072;-62
2023/05/27 03:57:50;;;;;;;1.20;0.85;;;;;;;;;;5022079;28;20105;-62
2023/05/27 04:00:17;;;;;;;2.20;0.98;;;;;;;;;;5023123;28;20042;-62
2023/05/27 04:02:43;;;;;;;2.13;0.93;;;;;;;;;;5022644;28;20616;-62
2023/05/27 04:05:09;;;;;;;2.58;0.95;;;;;;;;;;5022650;28;20115;-62
2023/05/27 04:07:35;;;;;;;1.38;0.68;;;;;;;;;;5020929;28;20080;-62
2023/05/27 04:10:01;;;;;;;2.50;1.17;;;;;;;;;;5000076;28;20396;-62
2023/05/27 04:12:27;;;;;;;1.02;0.73;;;;;;;;;;5022274;28;20086;-62
2023/05/27 04:14:53;;;;;;;0.95;0.60;;;;;;;;;;5023061;28;20119;-62
2023/05/27 04:17:19;;;;;;;0.70;0.50;;;;;;;;;;5027623;28;20044;-62
2023/05/27 04:19:48;;;;;;;1.10;0.65;;;;;;;;;;5029602;28;20034;-62
2023/05/27 04:22:14;;;;;;;1.33;0.80;;;;;;;;;;5030776;28;20049;-62
2023/05/27 04:24:40;;;;;;;1.08;0.45;;;;;;;;;;5030448;28;20041;-62
2023/05/27 04:27:07;;;;;;;0.95;0.70;;;;;;;;;;5030681;28;20090;-62
2023/05/27 04:29:34;;;;;;;1.40;0.90;;;;;;;;;;5026438;28;20049;-62
2023/05/27 04:32:00;;;;;;;3.58;1.42;;;;;;;;;;5029506;28;20075;-62
2023/05/27 04:34:26;;;;;;;1.55;0.82;;;;;;;;;;5030668;28;20045;-62
2023/05/27 04:36:52;;;;;;;3.22;1.10;;;;;;;;;;5028843;28;20049;-62
2023/05/27 04:39:18;;;;;;;6.05;1.67;;;;;;;;;;5030624;28;20033;-62
2023/05/27 04:41:45;;;;;;;2.08;1.13;;;;;;;;;;5028519;28;20033;-62
2023/05/27 04:44:12;;;;;;;1.13;0.70;;;;;;;;;;5029738;28;20120;-62
2023/05/27 04:46:43;;;;;;;2.58;1.20;;;;;;;;;;5027199;28;20063;-62
2023/05/27 04:49:10;;;;;;;1.83;0.73;;;;;;;;;;5028012;28;20071;-62
2023/05/27 04:51:36;;;;;;;2.80;0.98;;;;;;;;;;5023366;28;20049;-62
2023/05/27 04:54:02;;;;;;;1.42;0.80;;;;;;;;;;5029324;28;20049;-62
2023/05/27 04:56:28;;;;;;;1.73;0.82;;;;;;;;;;5029827;28;20382;-62
2023/05/27 04:58:55;;;;;;;1.98;1.08;;;;;;;;;;5028024;28;21040;-62
2023/05/27 05:01:24;;;;;;;1.42;0.85;;;;;;;;;;5029829;28;20045;-62
2023/05/27 05:04:10;;;;;;;0.90;0.60;;;;;;;;;;5028057;28;20058;-62
2023/05/27 05:06:37;;;;;;;1.17;0.57;;;;;;;;;;5027943;28;20060;-62
2023/05/27 05:09:04;;;;;;;1.88;1.00;;;;;;;;;;5028611;28;20041;-62
2023/05/27 05:11:30;;;;;;;1.98;1.13;;;;;;;;;;5018806;28;20042;-62
2023/05/27 05:13:57;;;;;;;0.57;0.57;;;;;;;;;;5029587;28;20498;-62
2023/05/27 05:16:23;;;;;;;1.58;0.77;;;;;;;;;;5012622;28;20056;-62
2023/05/27 05:18:50;;;;;;;0.82;0.63;;;;;;;;;;5029112;28;20114;-62
2023/05/27 05:21:16;;;;;;;1.52;0.82;;;;;;;;;;5031711;28;20079;-62
2023/05/27 05:23:42;;;;;;;1.05;0.60;;;;;;;;;;5028612;28;20042;-62
2023/05/27 05:26:08;;;;;;;0.52;0.52;;;;;;;;;;5028654;28;20076;-62
2023/05/27 05:28:35;;;;;;;1.00;0.50;;;;;;;;;;5028999;28;20076;-62
2023/05/27 05:31:01;;;;;;;0.70;0.60;;;;;;;;;;5019475;28;20124;-62
2023/05/27 05:33:27;;;;;;;0.85;0.52;;;;;;;;;;5023103;28;20072;-62
2023/05/27 05:35:53;;;;;;;0.70;0.47;;;;;;;;;;5008525;28;20056;-62
2023/05/27 05:38:19;;;;;;;1.50;0.70;;;;;;;;;;5022879;28;20037;-62
2023/05/27 05:40:49;;;;;;;1.38;0.50;;;;;;;;;;5026377;28;20509;-62
2023/05/27 05:43:15;;;;;;;0.82;0.45;;;;;;;;;;5025929;28;20049;-62
2023/05/27 05:45:41;;;;;;;0.50;0.50;;;;;;;;;;5026971;28;20080;-62
2023/05/27 05:48:07;;;;;;;0.60;0.52;;;;;;;;;;5025544;28;20073;-62
2023/05/27 05:50:33;;;;;;;1.70;0.80;;;;;;;;;;5027203;28;20056;-62
2023/05/27 05:52:59;;;;;;;0.68;0.52;;;;;;;;;;5025886;28;20037;-62
2023/05/27 05:55:25;;;;;;;0.60;0.60;;;;;;;;;;5026385;28;20041;-62
2023/05/27 05:57:51;;;;;;;1.02;0.40;;;;;;;;;;5024710;28;20116;-63
2023/05/27 06:00:18;;;;;;;4.20;1.13;;;;;;;;;;5023648;28;20052;-62
2023/05/27 06:02:44;;;;;;;0.65;0.50;;;;;;;;;;5026166;28;20049;-62
2023/05/27 06:05:10;;;;;;;1.15;0.55;;;;;;;;;;5023878;28;20057;-62
2023/05/27 06:07:36;;;;;;;1.85;0.80;;;;;;;;;;5025634;28;20446;-62
2023/05/27 06:10:02;;;;;;;1.33;0.60;;;;;;;;;;5016035;28;20152;-62
2023/05/27 06:12:28;;;;;;;2.13;0.68;;;;;;;;;;5018459;28;20050;-62
2023/05/27 06:14:54;;;;;;;1.08;0.70;;;;;;;;;;5024094;28;20049;-62
2023/05/27 06:17:20;;;;;;;0.60;0.40;;;;;;;;;;5006099;28;20210;-62
2023/05/27 06:19:46;;;;;;;2.80;0.80;;;;;;;;;;5025469;28;20712;-62
2023/05/27 06:22:12;;;;;;;2.70;1.30;;;;;;;;;;5025849;28;20098;-62
2023/05/27 06:24:38;;;;;;;3.40;1.52;;;;;;;;;;5026054;28;20409;-62
2023/05/27 06:27:04;;;;;;;2.65;1.50;;;;;;;;;;5026326;28;20037;-62
2023/05/27 06:29:30;;;;;;;2.20;1.38;;;;;;;;;;5025846;28;20053;-62
2023/05/27 06:31:56;;;;;;;4.10;1.83;;;;;;;;;;5023724;28;20049;-62
2023/05/27 06:34:22;;;;;;;3.53;1.77;;;;;;;;;;5013014;28;20560;-62
2023/05/27 06:36:48;;;;;;;2.22;1.15;;;;;;;;;;5024796;28;20049;-62
2023/05/27 06:39:15;;;;;;;3.53;1.10;;;;;;;;;;5026048;28;20045;-62
2023/05/27 06:41:41;;;;;;;4.45;1.80;;;;;;;;;;5025388;28;20572;-62
2023/05/27 06:44:07;;;;;;;2.08;1.52;;;;;;;;;;5019656;28;20041;-62
2023/05/27 06:46:33;;;;;;;2.30;0.80;;;;;;;;;;5022963;28;20052;-62
2023/05/27 06:48:59;;;;;;;4.50;1.27;;;;;;;;;;5025196;28;20121;-62
2023/05/27 06:51:27;;;;;;;3.05;1.40;;;;;;;;;;5023207;28;20398;-62
2023/05/27 06:53:53;;;;;;;4.03;1.50;;;;;;;;;;5018150;28;20478;-62
2023/05/27 06:56:19;;;;;;;3.60;1.30;;;;;;;;;;5018080;28;20057;-62
2023/05/27 06:58:46;;;;;;;5.25;1.45;;;;;;;;;;5023445;28;20072;-63
2023/05/27 07:01:12;;;;;;;3.90;1.65;;;;;;;;;;5023676;28;20474;-62
2023/05/27 07:03:38;;;;;;;4.82;1.80;;;;;;;;;;5021610;28;20525;-62
2023/05/27 07:06:05;;;;;;;5.97;2.40;;;;;;;;;;5018587;28;20139;-62
2023/05/27 07:08:31;;;;;;;6.38;2.38;;;;;;;;;;5022257;28;20087;-62
2023/05/27 07:10:57;;;;;;;2.70;1.45;;;;;;;;;;5017523;28;20041;-62
2023/05/27 07:13:23;;;;;;;3.00;1.30;;;;;;;;;;5021926;28;20037;-62
2023/05/27 07:15:50;;;;;;;2.15;1.45;;;;;;;;;;5021639;28;20041;-62
2023/05/27 07:18:16;;;;;;;3.00;1.73;;;;;;;;;;5018388;28;20048;-62
2023/05/27 07:20:42;;;;;;;5.15;1.85;;;;;;;;;;5021784;28;20125;-62
2023/05/27 07:23:09;;;;;;;3.28;1.90;;;;;;;;;;5021277;28;20129;-62
2023/05/27 07:25:35;;;;;;;2.22;1.50;;;;;;;;;;5021538;28;20056;-63
2023/05/27 07:28:01;;;;;;;4.15;1.95;;;;;;;;;;5024642;28;20128;-62
2023/05/27 07:30:27;;;;;;;3.17;1.63;;;;;;;;;;5025155;28;20533;-62
2023/05/27 07:32:53;;;;;;;3.92;1.90;;;;;;;;;;5014099;28;20049;-62
2023/05/27 07:35:19;;;;;;;3.38;1.98;;;;;;;;;;5023759;28;20060;-62
2023/05/27 07:37:46;;;;;;;6.75;2.30;;;;;;;;;;5011728;28;20038;-62
2023/05/27 07:40:12;;;;;;;3.63;1.42;;;;;;;;;;5024159;28;20092;-59
2023/05/27 07:42:38;;;;;;;4.95;1.85;;;;;;;;;;5007516;28;20039;-60
2023/05/27 07:45:05;;;;;;;2.15;1.35;;;;;;;;;;5022960;28;20052;-62
2023/05/27 07:47:31;;;;;;;5.05;1.90;;;;;;;;;;5022369;28;20081;-66
2023/05/27 07:49:57;;;;;;;3.50;1.35;;;;;;;;;;5004101;28;20202;-61
2023/05/27 07:52:23;;;;;;;4.82;1.73;;;;;;;;;;5015629;28;20041;-62
2023/05/27 07:54:49;;;;;;;4.80;2.10;;;;;;;;;;5022997;28;20115;-62
2023/05/27 07:57:16;;;;;;;5.43;1.90;;;;;;;;;;5026592;28;20061;-62
2023/05/27 07:59:43;;;;;;;2.90;1.52;;;;;;;;;;5026035;28;20108;-62
2023/05/27 08:02:09;;;;;;;3.50;2.03;;;;;;;;;;5022909;28;20132;-62
2023/05/27 08:04:35;;;;;;;4.13;2.10;;;;;;;;;;5022922;28;20084;-62
2023/05/27 08:07:01;;;;;;;5.90;2.15;;;;;;;;;;5023514;28;20075;-63
2023/05/27 08:09:27;;;;;;;4.22;2.30;;;;;;;;;;5023639;28;20081;-62
2023/05/27 08:11:53;;;;;;;6.22;2.72;;;;;;;;;;5024659;28;20048;-62
2023/05/27 08:14:20;;;;;;;2.55;1.42;;;;;;;;;;5024277;28;20041;-62
2023/05/27 08:16:46;;;;;;;2.45;1.35;;;;;;;;;;5025058;28;20048;-62
2023/05/27 08:19:12;;;;;;;4.72;2.95;;;;;;;;;;5009622;28;20041;-62
2023/05/27 08:21:38;;;;;;;8.75;3.35;;;;;;;;;;5010610;28;20034;-62
2023/05/27 08:24:05;;;;;;;8.15;2.70;;;;;;;;;;5003412;28;20041;-62
2023/05/27 08:26:31;;;;;;;5.22;2.40;;;;;;;;;;5004665;28;20326;-61
2023/05/27 08:28:57;;;;;;;2.85;1.35;;;;;;;;;;5002335;28;20041;-61
2023/05/27 08:31:23;;;;;;;5.07;2.22;;;;;;;;;;5002395;28;20044;-61
2023/05/27 08:33:49;;;;;;;2.40;1.30;;;;;;;;;;5001364;28;20489;-61
2023/05/27 08:36:17;;;;;;;4.05;1.73;;;;;;;;;;5000747;28;20052;-61
2023/05/27 08:38:43;;;;;;;7.20;2.65;;;;;;;;;;4996058;28;20128;-61
2023/05/27 08:41:09;;;;;;;6.55;3.08;;;;;;;;;;5005440;28;20161;-61
2023/05/27 08:43:36;;;;;;;6.95;2.78;;;;;;;;;;5001237;28;20048;-61
2023/05/27 08:46:02;;;;;;;3.72;2.58;;;;;;;;;;5009238;28;20037;-61
2023/05/27 08:48:28;;;;;;;8.48;3.05;;;;;;;;;;5007434;28;20512;-61
2023/05/27 08:50:54;;;;;;;5.28;2.50;;;;;;;;;;5008970;28;20038;-61
2023/05/27 08:53:21;;;;;;;5.75;2.35;;;;;;;;;;5011351;28;20072;-61
2023/05/27 08:55:49;;;;;;;6.82;2.30;;;;;;;;;;5022893;28;20042;-62
2023/05/27 08:58:16;;;;;;;7.70;2.55;;;;;;;;;;5023049;28;20177;-62
2023/05/27 09:00:42;;;;;;;3.63;2.00;;;;;;;;;;5023599;28;20046;-61
2023/05/27 09:03:09;;;;;;;6.38;2.50;;;;;;;;;;5024594;28;20406;-61
2023/05/27 09:05:36;;;;;;;5.30;2.95;;;;;;;;;;5027829;28;20049;-62
2023/05/27 09:08:02;;;;;;;6.07;2.30;;;;;;;;;;5027732;28;20454;-62
2023/05/27 09:10:38;;;;;;;6.38;2.75;;;;;;;;;;5027337;28;20076;-62
2023/05/27 09:13:04;;;;;;;15.13;4.47;;;;;;;;;;5001241;28;20064;-62
2023/05/27 09:15:33;;;;;;;5.55;3.10;;;;;;;;;;5024185;28;20037;-62
2023/05/27 09:18:00;;;;;;;3.17;2.42;;;;;;;;;;5022335;28;20580;-61
2023/05/27 09:20:26;;;;;;;7.68;3.03;;;;;;;;;;5026500;28;20037;-61
2023/05/27 09:23:03;;;;;;;2.80;2.10;;;;;;;;;;5025859;28;20076;-61
2023/05/27 09:25:29;;;;;;;6.35;3.03;;;;;;;;;;5020210;28;20034;-61
2023/05/27 09:27:55;;;;;;;4.45;2.40;;;;;;;;;;5022393;28;20047;-61
2023/05/27 09:30:22;;;;;;;4.18;2.35;;;;;;;;;;5019949;28;20116;-61
2023/05/27 09:32:48;;;;;;;5.70;2.00;;;;;;;;;;5024282;28;20371;-64
2023/05/27 09:35:16;;;;;;;6.95;2.53;;;;;;;;;;5009984;28;20118;-62
2023/05/27 09:37:43;;;;;;;4.75;2.42;;;;;;;;;;5027615;28;20513;-62
2023/05/27 09:40:10;;;;;;;3.38;2.03;;;;;;;;;;5023170;28;20563;-62
2023/05/27 09:42:43;;;;;;;4.55;1.98;;;;;;;;;;5025081;28;20317;-62
2023/05/27 09:45:13;;;;;;;4.20;2.40;;;;;;;;;;5026062;28;20041;-63
2023/05/27 09:47:40;;;;;;;5.72;2.72;;;;;;;;;;5025807;28;20047;-62
2023/05/27 09:50:09;;;;;;;6.43;2.92;;;;;;;;;;5009530;28;20097;-62
2023/05/27 09:52:37;;;;;;;4.78;2.17;;;;;;;;;;5027695;28;20330;-62
2023/05/27 09:55:03;;;;;;;5.88;2.88;;;;;;;;;;5027430;28;20056;-62
2023/05/27 09:57:31;;;;;;;3.60;2.15;;;;;;;;;;5027671;28;20088;-62
2023/05/27 10:00:00;;;;;;;4.00;2.35;;;;;;;;;;5007658;28;20382;-62
2023/05/27 10:02:26;;;;;;;5.07;2.33;;;;;;;;;;5026201;28;20058;-63
2023/05/27 10:04:53;;;;;;;5.28;2.67;;;;;;;;;;5025980;28;20049;-62
2023/05/27 10:07:21;;;;;;;7.97;2.63;;;;;;;;;;5025407;28;20336;-62
2023/05/27 10:09:47;;;;;;;4.57;1.90;;;;;;;;;;5025762;28;20045;-62
2023/05/27 10:12:15;;;;;;;6.78;3.00;;;;;;;;;;5026387;28;20462;-62
2023/05/27 10:14:44;;;;;;;6.95;3.20;;;;;;;;;;5026526;28;20052;-62
2023/05/27 10:17:10;;;;;;;4.70;2.58;;;;;;;;;;5027383;28;20056;-62
2023/05/27 10:19:36;;;;;;;2.42;1.80;;;;;;;;;;5027404;28;20076;-62
2023/05/27 10:22:10;;;;;;;5.43;2.50;;;;;;;;;;5026513;28;20045;-62
2023/05/27 10:24:36;;;;;;;8.80;2.80;;;;;;;;;;5027301;28;20041;-62
2023/05/27 10:27:02;;;;;;;3.75;2.13;;;;;;;;;;5026978;28;20132;-62
2023/05/27 10:29:37;;;;;;;4.07;2.28;;;;;;;;;;5026881;28;20037;-62
2023/05/27 10:32:03;;;;;;;5.68;3.05;;;;;;;;;;5027237;28;20052;-62
2023/05/27 10:34:42;;;;;;;5.05;2.38;;;;;;;;;;5026990;28;20517;-63
2023/05/27 10:37:10;;;;;;;6.05;2.88;;;;;;;;;;5026221;28;20526;-62
2023/05/27 10:39:36;;;;;;;4.57;2.63;;;;;;;;;;5027179;28;20137;-62
2023/05/27 10:42:02;;;;;;;5.82;3.00;;;;;;;;;;5026052;28;20041;-62
2023/05/27 10:44:35;;;;;;;6.03;2.70;;;;;;;;;;5027175;28;20045;-62
2023/05/27 10:47:11;;;;;;;4.20;2.33;;;;;;;;;;5026736;28;20422;-62
2023/05/27 10:49:39;;;;;;;5.43;2.78;;;;;;;;;;5025930;28;20041;-62
2023/05/27 10:52:15;;;;;;;9.07;3.53;;;;;;;;;;5026860;28;20357;-62
2023/05/27 10:54:52;;;;;;;6.22;2.63;;;;;;;;;;4992921;28;20041;-62
2023/05/27 10:57:19;;;;;;;5.93;2.30;;;;;;;;;;5026009;28;20108;-63
2023/05/27 10:59:49;;;;;;;7.07;2.70;;;;;;;;;;5026804;28;20045;-62
2023/05/27 11:02:15;;;;;;;5.10;2.70;;;;;;;;;;5026818;28;20073;-63
2023/05/27 11:04:42;;;;;;;4.47;2.78;;;;;;;;;;5026447;28;20096;-62
2023/05/27 11:07:08;;;;;;;6.38;2.90;;;;;;;;;;5026495;28;20057;-62
2023/05/27 11:09:50;;;;;;;8.18;2.70;;;;;;;;;;5026547;28;20046;-62
2023/05/27 11:12:18;;;;;;;4.00;1.92;;;;;;;;;;5008422;28;20114;-62
2023/05/27 11:14:45;;;;;;;4.35;2.50;;;;;;;;;;5026594;28;20128;-62
2023/05/27 11:17:12;;;;;;;5.63;2.97;;;;;;;;;;5026288;28;20053;-62
2023/05/27 11:19:41;;;;;;;6.22;2.45;;;;;;;;;;5026320;28;20502;-62
2023/05/27 11:22:08;;;;;;;4.55;2.40;;;;;;;;;;5026207;28;20044;-62
2023/05/27 11:24:36;;;;;;;5.38;2.85;;;;;;;;;;5022103;28;20033;-62
2023/05/27 11:27:08;;;;;;;5.63;2.42;;;;;;;;;;5018430;28;20042;-62
2023/05/27 11:29:35;;;;;;;6.38;2.63;;;;;;;;;;5007269;28;20138;-63
2023/05/27 11:32:01;;;;;;;7.10;2.67;;;;;;;;;;5025767;28;20476;-64
2023/05/27 11:34:28;;;;;;;3.90;2.25;;;;;;;;;;5002341;28;20132;-64
2023/05/27 11:36:55;;;;;;;3.20;2.10;;;;;;;;;;4998089;28;20116;-64
2023/05/27 11:39:22;;;;;;;3.75;2.10;;;;;;;;;;4999567;28;20056;-63
2023/05/27 11:41:51;;;;;;;5.45;2.22;;;;;;;;;;5004086;28;20038;-64
2023/05/27 11:44:18;;;;;;;5.13;2.63;;;;;;;;;;4997453;28;20053;-64
2023/05/27 11:46:45;;;;;;;5.15;2.60;;;;;;;;;;4998909;28;20463;-64
2023/05/27 11:49:12;;;;;;;5.45;2.55;;;;;;;;;;5005789;28;20042;-64
2023/05/27 11:51:39;;;;;;;7.65;2.90;;;;;;;;;;5006252;28;20046;-63
2023/05/27 11:54:05;;;;;;;5.45;2.30;;;;;;;;;;5005172;28;20380;-63
2023/05/27 11:56:31;;;;;;;5.07;2.38;;;;;;;;;;5005953;28;20071;-62
2023/05/27 11:58:58;;;;;;;3.95;2.40;;;;;;;;;;5006702;28;20050;-62
2023/05/27 12:01:25;;;;;;;4.07;2.05;;;;;;;;;;5006222;28;20137;-62
2023/05/27 12:03:51;;;;;;;5.47;2.88;;;;;;;;;;5006127;28;20057;-62
2023/05/27 12:06:17;;;;;;;5.00;2.30;;;;;;;;;;5005940;28;20549;-60
2023/05/27 12:08:43;;;;;;;4.68;2.78;;;;;;;;;;5003777;28;20573;-62
2023/05/27 12:11:09;;;;;;;2.28;2.00;;;;;;;;;;4995943;28;20041;-62
2023/05/27 12:13:36;;;;;;;2.90;1.67;;;;;;;;;;5001672;28;20794;-63
2023/05/27 12:16:03;;;;;;;7.53;3.05;;;;;;;;;;4986573;28;20125;-62
2023/05/27 12:18:29;;;;;;;7.45;3.53;;;;;;;;;;5005576;28;20301;-62
2023/05/27 12:20:56;;;;;;;9.23;4.28;;;;;;;;;;4994848;28;20101;-61
2023/05/27 12:23:22;;;;;;;5.57;2.75;;;;;;;;;;4989479;28;20117;-62
2023/05/27 12:25:48;;;;;;;6.03;3.60;;;;;;;;;;4988276;28;20648;-61
2023/05/27 12:28:14;;;;;;;5.45;2.88;;;;;;;;;;4992986;28;20494;-62
2023/05/27 12:30:40;;;;;;;6.60;3.33;;;;;;;;;;4994168;28;20053;-62
2023/05/27 12:33:06;;;;;;;5.88;3.33;;;;;;;;;;4992747;28;20111;-62
2023/05/27 12:35:33;;;;;;;6.32;3.25;;;;;;;;;;4991629;28;20042;-62
2023/05/27 12:37:59;;;;;;;4.68;2.50;;;;;;;;;;4995999;28;20049;-62
2023/05/27 12:40:26;;;;;;;3.92;2.53;;;;;;;;;;4996826;28;20042;-61
2023/05/27 12:42:52;;;;;;;4.47;2.42;;;;;;;;;;4996614;28;20044;-62
2023/05/27 12:45:19;;;;;;;6.72;2.92;;;;;;;;;;4996671;28;20046;-62
2023/05/27 12:47:45;;;;;;;5.05;2.92;;;;;;;;;;4995609;28;20050;-62
2023/05/27 12:50:11;;;;;;;6.93;3.15;;;;;;;;;;4996229;28;20039;-62
2023/05/27 12:52:38;;;;;;;4.95;2.92;;;;;;;;;;5000007;28;20052;-62
2023/05/27 12:55:04;;;;;;;5.28;2.65;;;;;;;;;;4999100;28;20044;-62
2023/05/27 12:57:30;;;;;;;5.28;2.10;;;;;;;;;;4999682;28;20124;-62
2023/05/27 12:59:56;;;;;;;6.03;3.33;;;;;;;;;;4995953;28;20053;-62
2023/05/27 13:02:22;;;;;;;7.13;3.72;;;;;;;;;;4997229;28;20059;-62
2023/05/27 13:04:49;;;;;;;5.00;2.75;;;;;;;;;;4996966;28;20046;-62
2023/05/27 13:07:16;;;;;;;3.05;2.17;;;;;;;;;;5002484;28;20161;-62
2023/05/27 13:09:42;;;;;;;4.00;2.40;;;;;;;;;;5015413;28;20052;-62
2023/05/27 13:12:08;;;;;;;6.65;2.45;;;;;;;;;;5020614;28;20104;-62
2023/05/27 13:14:34;;;;;;;6.57;2.95;;;;;;;;;;5019916;28;20090;-62
2023/05/27 13:17:01;;;;;;;7.80;3.20;;;;;;;;;;5018023;28;20686;-62
2023/05/27 13:19:27;;;;;;;5.30;2.60;;;;;;;;;;5021624;28;20091;-62
2023/05/27 13:21:53;;;;;;;5.63;2.80;;;;;;;;;;5025077;28;20049;-62
2023/05/27 13:24:20;;;;;;;4.82;2.55;;;;;;;;;;5017536;28;20049;-60
2023/05/27 13:26:46;;;;;;;5.50;2.50;;;;;;;;;;5018551;28;20033;-62
2023/05/27 13:29:12;;;;;;;9.65;3.80;;;;;;;;;;5020016;28;20132;-62
2023/05/27 13:31:38;;;;;;;4.35;2.92;;;;;;;;;;5026168;28;20514;-62
2023/05/27 13:34:04;;;;;;;5.25;2.85;;;;;;;;;;5024737;28;20042;-63
2023/05/27 13:36:30;;;;;;;4.85;3.00;;;;;;;;;;5027331;28;20045;-62
2023/05/27 13:38:56;;;;;;;4.68;2.55;;;;;;;;;;5026022;28;20037;-62
2023/05/27 13:41:22;;;;;;;4.55;2.30;;;;;;;;;;5027832;28;20037;-63
2023/05/27 13:43:48;;;;;;;6.43;2.95;;;;;;;;;;5026169;28;20080;-62
2023/05/27 13:46:14;;;;;;;6.53;2.90;;;;;;;;;;5018654;28;20046;-63
2023/05/27 13:48:40;;;;;;;5.22;2.72;;;;;;;;;;5009713;28;20128;-63
2023/05/27 13:51:06;;;;;;;5.30;2.55;;;;;;;;;;5011881;28;20220;-62
2023/05/27 13:53:32;;;;;;;5.38;2.92;;;;;;;;;;5024085;28;20433;-63
2023/05/27 13:55:58;;;;;;;3.50;2.78;;;;;;;;;;5026123;28;20049;-63
2023/05/27 13:58:24;;;;;;;2.70;2.20;;;;;;;;;;5026850;28;20119;-63
2023/05/27 14:00:50;;;;;;;4.70;2.67;;;;;;;;;;5025230;28;20041;-63
2023/05/27 14:03:16;;;;;;;3.03;1.67;;;;;;;;;;5026626;28;20104;-63
2023/05/27 14:05:42;;;;;;;3.28;2.65;;;;;;;;;;5026725;28;20049;-63
2023/05/27 14:08:09;;;;;;;4.95;2.83;;;;;;;;;;5026201;28;20041;-63
2023/05/27 14:10:35;;;;;;;5.43;3.15;;;;;;;;;;5027504;28;20119;-63
2023/05/27 14:13:02;;;;;;;6.32;2.58;;;;;;;;;;5025670;28;20113;-63
2023/05/27 14:15:29;;;;;;;4.80;2.67;;;;;;;;;;5026786;28;20506;-63
2023/05/27 14:17:55;;;;;;;4.88;2.85;;;;;;;;;;5025658;28;20175;-63
2023/05/27 14:20:21;;;;;;;4.10;2.70;;;;;;;;;;5026292;28;20037;-63
2023/05/27 14:22:47;;;;;;;6.65;2.30;;;;;;;;;;5025522;28;20088;-63
2023/05/27 14:25:13;;;;;;;8.35;3.53;;;;;;;;;;5026984;28;20121;-63
2023/05/27 14:27:41;;;;;;;8.02;3.45;;;;;;;;;;5024260;28;20860;-63
2023/05/27 14:30:07;;;;;;;7.25;3.20;;;;;;;;;;5026561;28;20064;-63
2023/05/27 14:32:33;;;;;;;6.30;3.15;;;;;;;;;;5026047;28;20525;-63
2023/05/27 14:34:59;;;;;;;6.75;3.13;;;;;;;;;;5025300;28;20137;-63
2023/05/27 14:37:25;;;;;;;9.65;3.38;;;;;;;;;;5026577;28;20486;-63
2023/05/27 14:39:52;;;;;;;6.03;2.83;;;;;;;;;;5025484;28;20038;-63